Time;durP1;ratioP1;P1;durP2;ratioP2;P2;SDS_P1;SDS_P2;PMS_P1;PMS_P2;Temp;Humidity;BMP_temperature;BMP_pressure;BME280_temperature;BME280_humidity;BME280_pressure;Samples;Min_cycle;Max_cycle;Signal;HPM_P1;HPM_P2
2022/11/14 00:00:45;;;;;;;16.27;10.63;;;11.40;75.30;;;-142.21;100.00;112049.66;5002592;28;21017;-73
2022/11/14 00:03:14;;;;;;;13.43;10.57;;;11.40;75.30;;;-142.21;100.00;112049.66;4997360;28;20538;-72
2022/11/14 00:05:43;;;;;;;13.60;10.10;;;11.40;76.00;;;-142.21;100.00;112049.66;5005401;28;20478;-72
2022/11/14 00:08:17;;;;;;;12.77;9.77;;;11.40;75.10;;;-142.21;100.00;112049.66;4995191;28;20447;-73
2022/11/14 00:10:46;;;;;;;12.17;9.87;;;11.40;75.20;;;-142.21;100.00;112049.66;5001526;28;20494;-73
2022/11/14 00:13:17;;;;;;;13.17;10.67;;;11.40;75.10;;;-142.21;100.00;112049.66;5007965;28;20455;-72
2022/11/14 00:15:49;;;;;;;12.40;10.23;;;11.30;75.30;;;-142.21;100.00;112049.66;5006087;28;20470;-72
2022/11/14 00:18:17;;;;;;;13.73;11.03;;;11.40;75.10;;;-142.21;100.00;112049.66;4996226;28;20479;-73
2022/11/14 00:20:47;;;;;;;12.13;9.63;;;11.40;75.90;;;-142.21;100.00;112049.66;5007123;28;20453;-72
2022/11/14 00:23:17;;;;;;;12.87;9.67;;;11.50;75.00;;;-142.21;100.00;112049.66;4999506;28;20447;-73
2022/11/14 00:25:46;;;;;;;12.80;9.77;;;11.60;75.20;;;-142.21;100.00;112049.66;5001528;28;20497;-72
2022/11/14 00:28:13;;;;;;;10.60;9.50;;;11.60;75.10;;;-142.21;100.00;112049.66;5006524;28;20958;-73
2022/11/14 00:30:46;;;;;;;12.03;10.03;;;11.60;74.70;;;-142.21;100.00;112049.66;5000073;28;20549;-72
2022/11/14 00:33:13;;;;;;;12.80;10.17;;;11.60;74.70;;;-142.21;100.00;112049.66;4997087;28;20443;-72
2022/11/14 00:35:50;;;;;;;13.43;10.53;;;11.50;74.50;;;-142.21;100.00;112049.66;4997841;28;20443;-73
2022/11/14 00:38:17;;;;;;;13.47;10.27;;;11.50;74.50;;;-142.21;100.00;112049.66;4997296;28;20522;-73
2022/11/14 00:40:44;;;;;;;14.20;10.53;;;11.60;74.40;;;-142.21;100.00;112049.66;4992648;28;20447;-73
2022/11/14 00:43:11;;;;;;;12.50;10.07;;;11.60;74.10;;;-142.21;100.00;112049.66;5007869;28;21021;-73
2022/11/14 00:45:38;;;;;;;12.17;9.57;;;11.60;74.10;;;-142.21;100.00;112049.66;5010095;28;20482;-73
2022/11/14 00:48:06;;;;;;;11.37;9.80;;;11.60;74.10;;;-142.21;100.00;112049.66;5000748;28;20451;-73
2022/11/14 00:50:33;;;;;;;13.07;10.17;;;11.70;74.20;;;-142.21;100.00;112049.66;4997306;28;20465;-73
2022/11/14 00:53:01;;;;;;;12.33;10.57;;;11.70;74.10;;;-142.21;100.00;112049.66;5000256;28;20546;-73
2022/11/14 00:55:29;;;;;;;11.70;9.57;;;11.80;74.20;;;-142.21;100.00;112049.66;5011553;28;20446;-72
2022/11/14 00:57:56;;;;;;;14.73;11.43;;;11.80;74.10;;;-142.21;100.00;112049.66;5002691;28;20826;-73
2022/11/14 01:00:23;;;;;;;14.57;10.73;;;11.80;74.20;;;-142.21;100.00;112049.66;5000790;28;20530;-73
2022/11/14 01:02:50;;;;;;;11.47;10.17;;;11.70;74.20;;;-142.21;100.00;112049.66;4995273;28;20446;-73
2022/11/14 01:05:17;;;;;;;13.40;10.40;;;11.70;74.20;;;-142.21;100.00;112049.66;4999673;28;20495;-73
2022/11/14 01:07:45;;;;;;;13.37;10.87;;;11.60;74.40;;;-142.21;100.00;112049.66;4994827;28;20447;-73
2022/11/14 01:10:13;;;;;;;14.40;11.43;;;11.60;74.60;;;-142.21;100.00;112049.66;4993818;28;20445;-72
2022/11/14 01:12:40;;;;;;;12.83;10.10;;;11.60;74.70;;;-142.21;100.00;112049.66;4999185;28;20453;-73
2022/11/14 01:15:09;;;;;;;15.53;10.33;;;11.60;74.60;;;-142.21;100.00;112049.66;5003825;28;20537;-72
2022/11/14 01:17:36;;;;;;;17.00;10.73;;;11.60;74.60;;;-142.21;100.00;112049.66;5003777;28;20458;-73
2022/11/14 01:20:05;;;;;;;13.00;10.93;;;11.50;74.70;;;-142.21;100.00;112049.66;4993432;28;20446;-73
2022/11/14 01:22:32;;;;;;;12.30;9.73;;;11.50;75.00;;;-142.21;100.00;112049.66;4997995;28;20994;-73
2022/11/14 01:24:59;;;;;;;12.20;10.33;;;11.40;75.00;;;-142.21;100.00;112049.66;5007719;28;21023;-73
2022/11/14 01:27:31;;;;;;;14.30;11.03;;;11.30;75.30;;;-142.21;100.00;112049.66;5003897;28;20458;-73
2022/11/14 01:29:58;;;;;;;15.43;10.93;;;11.40;75.40;;;-142.21;100.00;112049.66;5001566;28;20437;-73
2022/11/14 01:32:27;;;;;;;13.43;10.47;;;11.40;75.20;;;-142.21;100.00;112049.66;5006913;28;20468;-73
2022/11/14 01:34:54;;;;;;;12.90;11.10;;;11.50;75.20;;;-142.21;100.00;112049.66;4999041;28;20538;-73
2022/11/14 01:37:22;;;;;;;13.70;10.23;;;11.40;75.00;;;-142.21;100.00;112049.66;4953049;28;20446;-73
2022/11/14 01:39:49;;;;;;;11.57;9.97;;;11.40;75.20;;;-142.21;100.00;112049.66;4994877;28;20558;-73
2022/11/14 01:42:16;;;;;;;12.30;10.00;;;11.40;74.80;;;-142.21;100.00;112049.66;5007782;28;20445;-74
2022/11/14 01:44:52;;;;;;;13.97;10.47;;;11.40;74.80;;;-142.21;100.00;112049.66;5014325;28;20489;-73
2022/11/14 01:47:23;;;;;;;13.27;10.33;;;11.30;74.60;;;-142.21;100.00;112049.66;5008586;28;20431;-73
2022/11/14 01:49:57;;;;;;;11.37;9.67;;;11.20;75.50;;;-142.21;100.00;112049.66;4969029;28;20442;-73
2022/11/14 01:52:28;;;;;;;13.60;9.90;;;11.20;75.10;;;-142.21;100.00;112049.66;5009773;28;20774;-73
2022/11/14 01:55:01;;;;;;;13.47;10.53;;;11.10;75.40;;;-142.21;100.00;112049.66;4996030;28;20518;-73
2022/11/14 01:57:35;;;;;;;13.57;10.77;;;11.00;75.90;;;-142.21;100.00;112049.66;4995685;28;20782;-72
2022/11/14 02:00:10;;;;;;;14.67;11.40;;;11.00;76.00;;;-142.21;100.00;112049.66;5005013;28;20446;-73
2022/11/14 02:02:39;;;;;;;14.33;11.13;;;10.90;76.10;;;-142.21;100.00;112049.66;4996252;28;20806;-73
2022/11/14 02:05:11;;;;;;;12.13;10.10;;;10.80;76.60;;;-142.21;100.00;112049.66;4997575;28;20573;-73
2022/11/14 02:07:41;;;;;;;12.80;10.37;;;10.80;76.70;;;-142.21;100.00;112049.66;5007984;28;20445;-73
2022/11/14 02:10:21;;;;;;;16.00;11.27;;;10.80;76.80;;;-142.21;100.00;112049.66;5006384;28;20437;-74
2022/11/14 02:12:50;;;;;;;13.93;10.80;;;10.80;76.60;;;-142.21;100.00;112049.66;5004710;28;20439;-74
2022/11/14 02:15:19;;;;;;;15.17;11.00;;;10.80;76.90;;;-142.21;100.00;112049.66;4993365;28;20988;-73
2022/11/14 02:17:46;;;;;;;13.77;10.73;;;10.90;76.70;;;-142.21;100.00;112049.66;5005859;28;20533;-73
2022/11/14 02:20:22;;;;;;;13.83;10.57;;;10.90;76.60;;;-142.21;100.00;112049.66;5011456;28;20467;-73
2022/11/14 02:22:49;;;;;;;13.80;11.30;;;10.90;76.70;;;-142.21;100.00;112049.66;4998891;28;20457;-73
2022/11/14 02:25:18;;;;;;;15.83;11.70;;;10.90;76.60;;;-142.21;100.00;112049.66;4999131;28;21018;-73
2022/11/14 02:27:46;;;;;;;16.77;11.43;;;10.90;76.90;;;-142.21;100.00;112049.66;4997810;28;20940;-73
2022/11/14 02:30:18;;;;;;;18.43;11.77;;;11.00;76.60;;;-142.21;100.00;112049.66;5009151;28;20542;-73
2022/11/14 02:32:45;;;;;;;16.43;11.20;;;11.00;76.40;;;-142.21;100.00;112049.66;5009339;28;20544;-73
2022/11/14 02:35:13;;;;;;;17.20;12.03;;;11.10;76.10;;;-142.21;100.00;112049.66;5000296;28;20772;-73
2022/11/14 02:37:41;;;;;;;14.17;11.23;;;11.10;76.00;;;-142.21;100.00;112049.66;5002091;28;20477;-73
2022/11/14 02:40:10;;;;;;;15.30;11.33;;;11.00;76.00;;;-142.21;100.00;112049.66;5008666;28;20806;-73
2022/11/14 02:42:37;;;;;;;15.97;11.57;;;11.00;76.30;;;-142.21;100.00;112049.66;5004940;28;20446;-73
2022/11/14 02:45:05;;;;;;;15.67;12.50;;;11.00;76.30;;;-142.21;100.00;112049.66;5007903;28;20492;-73
2022/11/14 02:47:32;;;;;;;16.33;11.67;;;10.90;76.50;;;-142.21;100.00;112049.66;4994485;28;20455;-73
2022/11/14 02:50:00;;;;;;;15.90;11.43;;;10.80;76.70;;;-142.21;100.00;112049.66;4995244;28;20478;-73
2022/11/14 02:52:27;;;;;;;15.77;10.93;;;10.80;77.10;;;-142.21;100.00;112049.66;5004056;28;21014;-73
2022/11/14 02:54:55;;;;;;;14.53;10.47;;;10.80;77.20;;;-142.21;100.00;112049.66;5006706;28;20966;-73
2022/11/14 02:57:22;;;;;;;14.93;11.30;;;10.80;77.30;;;-142.21;100.00;112049.66;4996074;28;20541;-73
2022/11/14 02:59:49;;;;;;;16.83;12.63;;;10.80;77.50;;;-142.21;100.00;112049.66;5010388;28;20944;-72
2022/11/14 03:02:16;;;;;;;18.73;12.30;;;10.60;77.30;;;-142.21;100.00;112049.66;4988745;28;20449;-74
2022/11/14 03:04:43;;;;;;;16.50;12.20;;;10.60;77.90;;;-142.21;100.00;112049.66;5011497;28;20497;-73
2022/11/14 03:07:11;;;;;;;15.43;11.20;;;10.60;78.00;;;-142.21;100.00;112049.66;5013710;28;20448;-74
2022/11/14 03:09:38;;;;;;;17.47;12.53;;;10.60;78.00;;;-142.21;100.00;112049.66;5012919;28;20446;-72
2022/11/14 03:12:07;;;;;;;17.77;11.63;;;10.50;77.90;;;-142.21;100.00;112049.66;5010521;28;20485;-73
2022/11/14 03:14:34;;;;;;;19.13;12.87;;;10.50;78.10;;;-142.21;100.00;112049.66;5006829;28;20451;-73
2022/11/14 03:17:01;;;;;;;19.50;13.27;;;10.40;78.20;;;-142.21;100.00;112049.66;5006018;28;20470;-73
2022/11/14 03:19:28;;;;;;;20.37;12.07;;;10.30;78.30;;;-142.21;100.00;112049.66;4999005;28;20463;-73
2022/11/14 03:21:55;;;;;;;16.60;11.67;;;10.30;78.70;;;-142.21;100.00;112049.66;5007790;28;20446;-73
2022/11/14 03:24:22;;;;;;;18.53;12.47;;;10.20;78.80;;;-142.21;100.00;112049.66;5007798;28;21132;-73
2022/11/14 03:26:49;;;;;;;17.77;13.20;;;10.10;78.90;;;-142.21;100.00;112049.66;5004857;28;20472;-74
2022/11/14 03:29:18;;;;;;;19.57;13.30;;;10.10;79.00;;;-142.21;100.00;112049.66;5002531;28;20454;-73
2022/11/14 03:31:48;;;;;;;15.80;12.20;;;10.20;79.20;;;-142.21;100.00;112049.66;5006691;28;20534;-74
2022/11/14 03:34:15;;;;;;;13.87;10.83;;;10.20;78.70;;;-142.21;100.00;112049.66;5005892;28;20447;-73
2022/11/14 03:36:42;;;;;;;15.67;11.17;;;10.20;78.90;;;-142.21;100.00;112049.66;4994060;28;20476;-73
2022/11/14 03:39:10;;;;;;;16.47;11.90;;;10.20;78.60;;;-142.21;100.00;112049.66;4994779;28;20449;-72
2022/11/14 03:41:37;;;;;;;15.93;12.23;;;10.10;78.70;;;-142.21;100.00;112049.66;4996109;28;21014;-73
2022/11/14 03:44:04;;;;;;;18.40;12.03;;;10.10;79.10;;;-142.21;100.00;112049.66;4962408;28;20457;-73
2022/11/14 03:46:33;;;;;;;16.47;12.33;;;10.00;79.10;;;-142.21;100.00;112049.66;5011011;28;20493;-73
2022/11/14 03:49:01;;;;;;;16.87;11.50;;;10.00;79.10;;;-142.21;100.00;112049.66;5005677;28;20989;-73
2022/11/14 03:51:28;;;;;;;17.50;11.43;;;10.10;79.20;;;-142.21;100.00;112049.66;5012632;28;20449;-73
2022/11/14 03:53:55;;;;;;;18.23;11.07;;;10.20;79.10;;;-142.21;100.00;112049.66;4996393;28;20455;-73
2022/11/14 03:56:22;;;;;;;15.90;11.50;;;10.20;78.90;;;-142.21;100.00;112049.66;4973790;28;20462;-73
2022/11/14 03:58:49;;;;;;;18.40;11.40;;;10.30;78.40;;;-142.21;100.00;112049.66;5007904;28;20454;-74
2022/11/14 04:01:16;;;;;;;14.70;10.77;;;10.30;78.90;;;-142.21;100.00;112049.66;5002466;28;20454;-73
2022/11/14 04:03:44;;;;;;;15.37;10.97;;;10.40;78.20;;;-142.21;100.00;112049.66;5009934;28;20545;-72
2022/11/14 04:06:11;;;;;;;15.83;11.97;;;10.50;77.90;;;-142.21;100.00;112049.66;4999267;28;20541;-72
2022/11/14 04:08:40;;;;;;;15.83;10.80;;;10.50;77.50;;;-142.21;100.00;112049.66;4995985;28;20451;-72
2022/11/14 04:11:08;;;;;;;12.87;9.80;;;10.60;76.90;;;-142.21;100.00;112049.66;5005081;28;20481;-72
2022/11/14 04:13:35;;;;;;;12.47;9.77;;;10.60;76.70;;;-142.21;100.00;112049.66;5001294;28;20507;-73
2022/11/14 04:16:02;;;;;;;14.17;10.50;;;10.60;76.50;;;-142.21;100.00;112049.66;5006357;28;20450;-73
2022/11/14 04:18:29;;;;;;;13.10;10.67;;;10.60;76.60;;;-142.21;100.00;112049.66;5001499;28;20970;-73
2022/11/14 04:20:58;;;;;;;12.50;10.30;;;10.60;76.60;;;-142.21;100.00;112049.66;5002100;28;20454;-73
2022/11/14 04:23:25;;;;;;;14.57;11.17;;;10.60;76.50;;;-142.21;100.00;112049.66;4999441;28;20479;-73
2022/11/14 04:25:53;;;;;;;15.10;10.93;;;10.60;76.30;;;-142.21;100.00;112049.66;4999371;28;21024;-73
2022/11/14 04:28:20;;;;;;;13.90;10.40;;;10.70;76.60;;;-142.21;100.00;112049.66;5005337;28;20538;-73
2022/11/14 04:30:47;;;;;;;13.80;10.30;;;10.70;76.50;;;-142.21;100.00;112049.66;4997214;28;20530;-73
2022/11/14 04:33:14;;;;;;;13.60;10.37;;;10.60;76.00;;;-142.21;100.00;112049.66;5003513;28;20784;-73
2022/11/14 04:35:41;;;;;;;11.93;9.20;;;10.60;76.40;;;-142.21;100.00;112049.66;5011714;28;20447;-74
2022/11/14 04:38:10;;;;;;;13.00;9.43;;;10.60;76.50;;;-142.21;100.00;112049.66;5002076;28;20531;-73
2022/11/14 04:40:37;;;;;;;11.07;8.67;;;10.70;76.30;;;-142.21;100.00;112049.66;5004107;28;20450;-74
2022/11/14 04:43:04;;;;;;;12.40;9.13;;;10.80;76.00;;;-142.21;100.00;112049.66;5007795;28;20443;-72
2022/11/14 04:45:31;;;;;;;13.00;8.97;;;10.80;75.30;;;-142.21;100.00;112049.66;5004209;28;20485;-74
2022/11/14 04:47:58;;;;;;;11.80;9.17;;;10.80;74.70;;;-142.21;100.00;112049.66;5002926;28;20554;-74
2022/11/14 04:50:26;;;;;;;11.80;8.93;;;10.80;74.30;;;-142.21;100.00;112049.66;4999877;28;20459;-74
2022/11/14 04:52:53;;;;;;;10.23;8.70;;;10.80;74.20;;;-142.21;100.00;112049.66;4993370;28;20461;-73
2022/11/14 04:55:21;;;;;;;12.47;9.47;;;10.80;73.90;;;-142.21;100.00;112049.66;5010166;28;20496;-73
2022/11/14 04:57:54;;;;;;;10.23;8.97;;;10.80;73.80;;;-142.21;100.00;112049.66;5009008;28;20464;-73
2022/11/14 05:00:21;;;;;;;10.63;9.07;;;10.80;73.30;;;-142.21;100.00;112049.66;5000390;28;20523;-73
2022/11/14 05:02:49;;;;;;;13.60;9.40;;;10.70;73.40;;;-142.21;100.00;112049.66;5006866;28;20446;-73
2022/11/14 05:05:16;;;;;;;10.47;9.37;;;10.70;73.80;;;-142.21;100.00;112049.66;4999785;28;21005;-74
2022/11/14 05:07:44;;;;;;;11.10;9.90;;;10.60;73.00;;;-142.21;100.00;112049.66;4997931;28;20617;-74
2022/11/14 05:14:06;;;;;;;11.43;10.03;;;10.30;73.70;;;-142.21;100.00;112049.66;4839475;28;20485;-73
2022/11/14 05:16:33;;;;;;;10.73;9.60;;;10.20;74.80;;;-142.21;100.00;112049.66;4990560;28;20522;-73
2022/11/14 05:19:00;;;;;;;11.87;9.80;;;10.20;74.80;;;-142.21;100.00;112049.66;4991954;28;20491;-73
2022/11/14 05:21:27;;;;;;;11.17;9.97;;;10.30;74.70;;;-142.21;100.00;112049.66;4983559;28;20533;-73
2022/11/14 05:23:56;;;;;;;10.87;9.77;;;10.30;74.60;;;-142.21;100.00;112049.66;4983313;28;20452;-73
2022/11/14 05:26:23;;;;;;;10.07;8.83;;;10.30;74.70;;;-142.21;100.00;112049.66;4980790;28;20499;-73
2022/11/14 05:28:50;;;;;;;10.37;9.03;;;10.30;74.70;;;-142.21;100.00;112049.66;4981058;28;20455;-73
2022/11/14 05:31:19;;;;;;;10.10;8.93;;;10.40;74.50;;;-142.21;100.00;112049.66;4973543;28;21012;-73
2022/11/14 05:33:46;;;;;;;10.13;8.67;;;10.40;74.00;;;-142.21;100.00;112049.66;4983161;28;20541;-74
2022/11/14 05:36:16;;;;;;;10.63;9.20;;;10.40;73.90;;;-142.21;100.00;112049.66;4979741;28;20448;-73
2022/11/14 05:38:43;;;;;;;9.90;8.37;;;10.40;73.90;;;-142.21;100.00;112049.66;4991134;28;20566;-73
2022/11/14 05:41:14;;;;;;;9.93;8.87;;;10.40;74.40;;;-142.21;100.00;112049.66;4983454;28;20454;-73
2022/11/14 05:43:41;;;;;;;8.97;8.07;;;10.40;73.70;;;-142.21;100.00;112049.66;4981318;28;20526;-73
2022/11/14 05:46:13;;;;;;;8.90;8.00;;;10.50;74.00;;;-142.21;100.00;112049.66;4991069;28;20483;-73
2022/11/14 05:48:42;;;;;;;10.13;8.30;;;10.50;73.90;;;-142.21;100.00;112049.66;4990372;28;20462;-73
2022/11/14 05:51:12;;;;;;;9.60;8.57;;;10.40;73.60;;;-142.21;100.00;112049.66;4982590;28;20546;-73
2022/11/14 05:53:41;;;;;;;9.87;8.43;;;10.50;73.50;;;-142.21;100.00;112049.66;4997489;28;20442;-73
2022/11/14 05:56:11;;;;;;;10.20;9.10;;;10.50;73.70;;;-142.21;100.00;112049.66;5000704;28;20451;-73
2022/11/14 05:58:39;;;;;;;10.07;8.60;;;10.50;73.80;;;-142.21;100.00;112049.66;4979013;28;20444;-73
2022/11/14 06:01:10;;;;;;;10.60;8.80;;;10.50;73.80;;;-142.21;100.00;112049.66;4980446;28;20456;-74
2022/11/14 06:03:41;;;;;;;9.97;8.37;;;10.60;73.50;;;-142.21;100.00;112049.66;4985149;28;20467;-75
2022/11/14 06:06:13;;;;;;;9.27;7.90;;;10.60;73.40;;;-142.21;100.00;112049.66;4989889;28;20482;-75
2022/11/14 06:08:41;;;;;;;10.10;8.30;;;10.60;73.30;;;-142.21;100.00;112049.66;4977560;28;20628;-74
2022/11/14 06:11:11;;;;;;;9.00;8.10;;;10.50;73.00;;;-142.21;100.00;112049.66;4989880;28;21031;-74
2022/11/14 06:13:38;;;;;;;9.37;8.30;;;10.50;73.00;;;-142.21;100.00;112049.66;4983679;28;20489;-74
2022/11/14 06:16:09;;;;;;;9.03;8.10;;;10.60;73.00;;;-142.21;100.00;112049.66;4976702;28;20462;-74
2022/11/14 06:18:37;;;;;;;9.17;7.90;;;10.50;73.00;;;-142.21;100.00;112049.66;4960117;28;20552;-74
2022/11/14 06:21:11;;;;;;;8.03;7.23;;;10.50;73.10;;;-142.21;100.00;112049.66;5009377;28;20525;-76
2022/11/14 06:23:38;;;;;;;8.57;7.73;;;10.50;73.00;;;-142.21;100.00;112049.66;4986299;28;20824;-75
2022/11/14 06:26:08;;;;;;;8.63;7.73;;;10.50;73.30;;;-142.21;100.00;112049.66;5021738;28;20565;-75
2022/11/14 06:28:35;;;;;;;9.20;8.20;;;10.50;73.10;;;-142.21;100.00;112049.66;5025388;28;20468;-75
2022/11/14 06:31:05;;;;;;;7.57;6.77;;;10.50;73.20;;;-142.21;100.00;112049.66;5034584;28;20532;-75
2022/11/14 06:33:36;;;;;;;8.33;7.33;;;10.40;73.10;;;-142.21;100.00;112049.66;5023481;28;20445;-75
2022/11/14 06:36:08;;;;;;;11.20;7.80;;;10.40;73.80;;;-142.21;100.00;112049.66;5031127;28;20507;-74
2022/11/14 06:38:38;;;;;;;9.00;8.10;;;10.40;73.10;;;-142.21;100.00;112049.66;5019505;28;20519;-74
2022/11/14 06:41:07;;;;;;;9.47;8.20;;;10.30;73.00;;;-142.21;100.00;112049.66;5021532;28;20445;-75
2022/11/14 06:43:34;;;;;;;9.10;8.20;;;10.30;73.10;;;-142.21;100.00;112049.66;5029453;28;21018;-75
2022/11/14 06:46:03;;;;;;;8.87;7.97;;;10.30;73.20;;;-142.21;100.00;112049.66;5034074;28;20491;-74
2022/11/14 06:48:31;;;;;;;8.80;7.90;;;10.20;73.20;;;-142.21;100.00;112049.66;5047145;28;20488;-74
2022/11/14 06:50:59;;;;;;;10.33;8.63;;;10.20;73.40;;;-142.21;100.00;112049.66;5021027;28;20446;-75
2022/11/14 06:53:31;;;;;;;8.30;7.50;;;10.10;73.30;;;-142.21;100.00;112049.66;5020965;28;20900;-75
2022/11/14 06:56:00;;;;;;;8.80;7.90;;;10.10;73.50;;;-142.21;100.00;112049.66;5030748;28;20434;-74
2022/11/14 06:58:29;;;;;;;8.50;7.70;;;10.10;73.60;;;-142.21;100.00;112049.66;5031247;28;20551;-75
2022/11/14 07:01:02;;;;;;;8.53;7.57;;;10.00;73.60;;;-142.21;100.00;112049.66;5024981;28;20449;-74
2022/11/14 07:03:29;;;;;;;8.63;7.73;;;10.10;73.80;;;-142.21;100.00;112049.66;5016109;28;20430;-74
2022/11/14 07:05:58;;;;;;;9.53;8.40;;;10.00;73.70;;;-142.21;100.00;112049.66;5023073;28;20581;-72
2022/11/14 07:08:27;;;;;;;9.10;7.90;;;10.00;73.80;;;-142.21;100.00;112049.66;5018838;28;20442;-73
2022/11/14 07:10:54;;;;;;;8.77;7.80;;;10.00;74.00;;;-142.21;100.00;112049.66;5027438;28;20484;-71
2022/11/14 07:13:21;;;;;;;8.13;7.33;;;10.00;74.10;;;-142.21;100.00;112049.66;5015643;28;20437;-72
2022/11/14 07:15:52;;;;;;;8.53;7.63;;;10.00;73.90;;;-142.21;100.00;112049.66;5022052;28;20791;-72
2022/11/14 07:18:20;;;;;;;8.63;7.70;;;10.00;73.90;;;-142.21;100.00;112049.66;5018399;28;20478;-72
2022/11/14 07:20:48;;;;;;;8.57;7.63;;;10.00;74.10;;;-142.21;100.00;112049.66;5028721;28;20476;-72
2022/11/14 07:23:15;;;;;;;8.07;7.27;;;10.00;74.90;;;-142.21;100.00;112049.66;5018645;28;20473;-73
2022/11/14 07:25:44;;;;;;;8.43;7.43;;;10.00;74.40;;;-142.21;100.00;112049.66;5020618;28;20456;-73
2022/11/14 07:28:11;;;;;;;8.20;7.30;;;10.00;74.50;;;-142.21;100.00;112049.66;5028251;28;20446;-75
2022/11/14 07:30:39;;;;;;;8.40;7.63;;;10.10;74.40;;;-142.21;100.00;112049.66;5028105;28;20457;-75
2022/11/14 07:33:06;;;;;;;8.57;7.73;;;10.10;74.20;;;-142.21;100.00;112049.66;5000332;28;20453;-74
2022/11/14 07:35:34;;;;;;;9.10;8.20;;;10.20;74.20;;;-142.21;100.00;112049.66;5027392;28;20449;-72
2022/11/14 07:38:05;;;;;;;10.03;8.37;;;10.20;74.40;;;-142.21;100.00;112049.66;5014118;28;20605;-72
2022/11/14 07:40:32;;;;;;;8.87;7.97;;;10.30;75.20;;;-142.21;100.00;112049.66;5021656;28;20507;-72
2022/11/14 07:43:02;;;;;;;11.00;9.17;;;10.30;74.70;;;-142.21;100.00;112049.66;5024232;28;20451;-73
2022/11/14 07:45:31;;;;;;;9.03;8.10;;;10.40;74.90;;;-142.21;100.00;112049.66;5029790;28;20438;-72
2022/11/14 07:48:00;;;;;;;9.30;8.30;;;10.40;74.90;;;-142.21;100.00;112049.66;5013922;28;20569;-72
2022/11/14 07:50:30;;;;;;;9.13;8.23;;;10.40;75.00;;;-142.21;100.00;112049.66;5018591;28;20851;-73
2022/11/14 07:52:57;;;;;;;9.33;8.33;;;10.40;75.20;;;-142.21;100.00;112049.66;5016907;28;20446;-72
2022/11/14 07:55:25;;;;;;;9.47;8.47;;;10.50;75.30;;;-142.21;100.00;112049.66;5036677;28;20523;-73
2022/11/14 07:57:54;;;;;;;8.83;7.63;;;10.50;75.40;;;-142.21;100.00;112049.66;5053360;28;20447;-72
2022/11/14 08:00:23;;;;;;;9.53;7.83;;;10.50;74.90;;;-142.21;100.00;112049.66;5053259;28;20544;-73
2022/11/14 08:02:50;;;;;;;9.20;7.93;;;10.60;74.50;;;-142.21;100.00;112049.66;5052542;28;20927;-72
2022/11/14 08:05:18;;;;;;;8.90;8.00;;;10.60;74.60;;;-142.21;100.00;112049.66;5033543;28;20859;-72
2022/11/14 08:07:45;;;;;;;9.37;8.40;;;10.70;75.20;;;-142.21;100.00;112049.66;5032570;28;20828;-72
2022/11/14 08:10:13;;;;;;;10.07;8.90;;;10.70;74.40;;;-142.21;100.00;112049.66;5023207;28;20450;-73
2022/11/14 08:12:40;;;;;;;10.50;9.40;;;10.80;74.50;;;-142.21;100.00;112049.66;5013051;28;20470;-71
2022/11/14 08:15:11;;;;;;;9.60;8.60;;;10.80;74.40;;;-142.21;100.00;112049.66;5015706;28;20924;-73
2022/11/14 08:17:40;;;;;;;10.17;8.93;;;10.90;74.50;;;-142.21;100.00;112049.66;5019090;28;20445;-73
2022/11/14 08:20:11;;;;;;;10.97;9.13;;;10.90;74.20;;;-142.21;100.00;112049.66;5018641;28;20563;-73
2022/11/14 08:22:38;;;;;;;9.60;8.50;;;10.90;74.00;;;-142.21;100.00;112049.66;5030949;28;20466;-72
2022/11/14 08:25:07;;;;;;;9.33;8.43;;;11.00;73.60;;;-142.21;100.00;112049.66;5031559;28;20489;-72
2022/11/14 08:27:34;;;;;;;10.67;9.00;;;11.00;73.50;;;-142.21;100.00;112049.66;5026137;28;21009;-72
2022/11/14 08:30:01;;;;;;;10.17;8.20;;;11.00;73.80;;;-142.21;100.00;112049.66;5016083;28;20529;-73
2022/11/14 08:32:28;;;;;;;9.27;8.10;;;11.00;73.90;;;-142.21;100.00;112049.66;5027542;28;20453;-73
2022/11/14 08:34:57;;;;;;;8.97;8.03;;;11.00;73.80;;;-142.21;100.00;112049.66;5032978;28;20789;-73
2022/11/14 08:37:24;;;;;;;8.57;7.03;;;11.00;73.40;;;-142.21;100.00;112049.66;5025067;28;20938;-73
2022/11/14 08:39:51;;;;;;;7.63;6.87;;;11.00;73.30;;;-142.21;100.00;112049.66;5027522;28;20446;-72
2022/11/14 08:42:19;;;;;;;8.93;7.83;;;11.00;73.30;;;-142.21;100.00;112049.66;5019946;28;20446;-72
2022/11/14 08:44:46;;;;;;;9.47;8.23;;;11.00;72.90;;;-142.21;100.00;112049.66;5012497;28;20447;-72
2022/11/14 08:47:14;;;;;;;9.17;8.13;;;11.00;73.30;;;-142.21;100.00;112049.66;5026471;28;20517;-73
2022/11/14 08:49:41;;;;;;;9.20;7.97;;;11.00;73.40;;;-142.21;100.00;112049.66;5023736;28;20469;-73
2022/11/14 08:52:10;;;;;;;10.07;8.97;;;11.10;73.60;;;-142.21;100.00;112049.66;5029724;28;20575;-73
2022/11/14 08:54:37;;;;;;;10.70;9.60;;;11.10;73.60;;;-142.21;100.00;112049.66;5027760;28;20496;-73
2022/11/14 08:57:05;;;;;;;10.63;8.63;;;11.10;73.40;;;-142.21;100.00;112049.66;5014861;28;20446;-72
2022/11/14 08:59:32;;;;;;;11.53;9.67;;;11.10;73.50;;;-142.21;100.00;112049.66;5015696;28;20453;-72
2022/11/14 09:02:00;;;;;;;10.77;9.17;;;11.10;73.80;;;-142.21;100.00;112049.66;5032461;28;20445;-73
2022/11/14 09:04:27;;;;;;;9.67;8.67;;;11.10;73.60;;;-142.21;100.00;112049.66;5022303;28;20536;-73
2022/11/14 09:06:54;;;;;;;10.43;8.93;;;11.10;73.50;;;-142.21;100.00;112049.66;5012267;28;20529;-73
2022/11/14 09:09:23;;;;;;;8.83;7.93;;;11.20;73.50;;;-142.21;100.00;112049.66;5019503;28;20528;-73
2022/11/14 09:11:50;;;;;;;9.80;8.43;;;11.10;73.20;;;-142.21;100.00;112049.66;5031650;28;20553;-73
2022/11/14 09:14:18;;;;;;;10.50;9.40;;;11.20;73.60;;;-142.21;100.00;112049.66;5019791;28;20516;-72
2022/11/14 09:16:47;;;;;;;10.23;8.53;;;11.20;73.60;;;-142.21;100.00;112049.66;5012860;28;20537;-72
2022/11/14 09:19:15;;;;;;;12.20;8.53;;;11.30;73.80;;;-142.21;100.00;112049.66;5013302;28;20521;-73
2022/11/14 09:21:42;;;;;;;10.30;8.17;;;11.30;73.60;;;-142.21;100.00;112049.66;5011824;28;20980;-73
2022/11/14 09:24:10;;;;;;;9.50;8.50;;;11.40;73.80;;;-142.21;100.00;112049.66;5028297;28;20886;-73
2022/11/14 09:26:38;;;;;;;10.43;8.40;;;11.40;73.30;;;-142.21;100.00;112049.66;5031046;28;20521;-72
2022/11/14 09:29:07;;;;;;;9.50;8.00;;;11.40;73.20;;;-142.21;100.00;112049.66;5030076;28;20952;-73
2022/11/14 09:31:34;;;;;;;9.97;8.37;;;11.50;73.20;;;-142.21;100.00;112049.66;5031471;28;20794;-73
2022/11/14 09:34:02;;;;;;;8.60;7.67;;;11.50;72.90;;;-142.21;100.00;112049.66;5015707;28;20510;-73
2022/11/14 09:36:29;;;;;;;9.20;8.30;;;11.50;73.60;;;-142.21;100.00;112049.66;5012053;28;20497;-73
2022/11/14 09:38:56;;;;;;;10.00;8.07;;;11.50;72.80;;;-142.21;100.00;112049.66;5013197;28;20488;-73
2022/11/14 09:41:26;;;;;;;10.53;8.40;;;11.50;72.80;;;-142.21;100.00;112049.66;5011594;28;20583;-72
2022/11/14 09:44:31;;;;;;;10.33;8.83;;;11.50;72.80;;;-142.21;100.00;112049.66;5021965;28;20437;-72
2022/11/14 09:47:04;;;;;;;9.00;8.10;;;11.60;73.20;;;-142.21;100.00;112049.66;5029108;28;20961;-73
2022/11/14 09:49:38;;;;;;;9.70;8.20;;;11.60;72.80;;;-142.21;100.00;112049.66;5031180;28;20528;-71
2022/11/14 09:52:22;;;;;;;9.40;8.23;;;11.60;72.60;;;-142.21;100.00;112049.66;5031976;28;20487;-73
2022/11/14 09:54:56;;;;;;;9.17;8.27;;;11.60;72.40;;;-142.21;100.00;112049.66;5031438;28;20464;-73
2022/11/14 09:57:25;;;;;;;9.63;7.90;;;11.60;72.00;;;-142.21;100.00;112049.66;5029963;28;20500;-72